Time;durP1;ratioP1;P1;durP2;ratioP2;P2;SDS_P1;SDS_P2;PMS_P1;PMS_P2;Temp;Humidity;BMP_temperature;BMP_pressure;BME280_temperature;BME280_humidity;BME280_pressure;Samples;Min_cycle;Max_cycle;Signal;HPM_P1;HPM_P2
2024/01/21 00:00:25;;;;;;;10.87;6.87;;;-0.90;99.90;;;;;;5017760;28;20265;-52
2024/01/21 00:02:51;;;;;;;10.60;7.10;;;-1.00;99.90;;;;;;5020487;28;20265;-51
2024/01/21 00:05:16;;;;;;;12.23;8.53;;;-1.00;99.90;;;;;;5031967;28;20641;-52
2024/01/21 00:07:42;;;;;;;11.00;7.43;;;-1.10;99.90;;;;;;5033838;28;20605;-52
2024/01/21 00:10:09;;;;;;;10.37;7.97;;;-1.00;99.90;;;;;;5027761;28;20207;-61
2024/01/21 00:12:35;;;;;;;12.67;7.53;;;-1.00;99.90;;;;;;5025356;28;20199;-61
2024/01/21 00:15:00;;;;;;;11.33;7.23;;;-1.00;99.90;;;;;;5032177;28;20559;-52
2024/01/21 00:17:26;;;;;;;11.07;6.77;;;-1.00;99.90;;;;;;5032557;28;20492;-52
2024/01/21 00:19:52;;;;;;;12.97;7.77;;;-1.00;99.90;;;;;;5009680;28;20201;-54
2024/01/21 00:22:17;;;;;;;12.70;9.07;;;-1.10;99.90;;;;;;5027564;28;20284;-64
2024/01/21 00:24:43;;;;;;;10.37;8.10;;;-1.00;99.90;;;;;;5031519;28;20284;-53
2024/01/21 00:27:08;;;;;;;12.37;8.87;;;-1.00;99.90;;;;;;5031595;28;20226;-52
2024/01/21 00:29:34;;;;;;;12.47;9.43;;;-1.20;99.90;;;;;;5027435;28;20195;-52
2024/01/21 00:31:59;;;;;;;9.87;6.87;;;-1.20;99.90;;;;;;5032204;28;20211;-51
2024/01/21 00:34:25;;;;;;;14.33;9.67;;;-1.10;99.90;;;;;;5028353;28;20198;-51
2024/01/21 00:36:50;;;;;;;10.23;7.80;;;-1.10;99.90;;;;;;5014469;28;20391;-52
2024/01/21 00:39:16;;;;;;;11.23;7.73;;;-1.10;99.90;;;;;;5033800;28;20277;-61
2024/01/21 00:41:42;;;;;;;13.10;7.70;;;-1.10;99.90;;;;;;5024023;28;20277;-61
2024/01/21 00:44:08;;;;;;;10.63;7.50;;;-1.10;99.90;;;;;;5031275;28;20518;-61
2024/01/21 00:46:38;;;;;;;12.80;8.03;;;-1.20;99.90;;;;;;5025102;28;20694;-61
2024/01/21 00:49:03;;;;;;;13.70;8.00;;;-1.10;99.90;;;;;;5032810;28;20208;-63
2024/01/21 00:51:29;;;;;;;11.43;7.83;;;-1.20;99.90;;;;;;5014738;28;20203;-63
2024/01/21 00:53:55;;;;;;;13.00;8.57;;;-1.20;99.90;;;;;;5031241;28;20223;-53
2024/01/21 00:56:20;;;;;;;12.33;9.17;;;-1.20;99.90;;;;;;5030738;28;20298;-53
2024/01/21 00:58:46;;;;;;;13.27;8.13;;;-1.20;99.90;;;;;;5025740;28;20203;-52
2024/01/21 01:01:11;;;;;;;16.07;9.23;;;-1.20;99.90;;;;;;5024508;28;20485;-53
2024/01/21 01:03:38;;;;;;;12.17;7.73;;;-1.30;99.90;;;;;;5022978;28;20202;-52
2024/01/21 01:06:04;;;;;;;15.93;9.40;;;-1.30;99.90;;;;;;5023927;28;20292;-51
2024/01/21 01:08:29;;;;;;;14.17;8.03;;;-1.30;99.90;;;;;;5022275;28;20219;-52
2024/01/21 01:10:55;;;;;;;12.60;9.03;;;-1.30;99.90;;;;;;5024425;28;20516;-52
2024/01/21 01:13:20;;;;;;;12.40;9.20;;;-1.50;99.90;;;;;;5019558;28;20223;-52
2024/01/21 01:15:46;;;;;;;11.63;8.40;;;-1.50;99.90;;;;;;5026325;28;20208;-52
2024/01/21 01:18:13;;;;;;;14.83;9.07;;;-1.50;99.90;;;;;;5024396;28;20275;-52
2024/01/21 01:20:39;;;;;;;14.83;9.47;;;-1.60;99.90;;;;;;5027118;28;20194;-52
2024/01/21 01:23:05;;;;;;;11.10;8.00;;;-1.60;99.90;;;;;;5013396;28;20199;-52
2024/01/21 01:25:31;;;;;;;13.40;9.27;;;-1.50;99.90;;;;;;5023272;28;20203;-52
2024/01/21 01:27:56;;;;;;;16.47;9.77;;;-1.50;99.90;;;;;;5026626;28;20219;-53
2024/01/21 01:30:22;;;;;;;13.13;9.47;;;-1.50;99.90;;;;;;5009277;28;20243;-51
2024/01/21 01:32:48;;;;;;;11.90;8.77;;;-1.50;99.90;;;;;;5029812;28;20218;-52
2024/01/21 01:35:13;;;;;;;14.50;8.73;;;-1.50;99.90;;;;;;5031563;28;20707;-51
2024/01/21 01:37:39;;;;;;;12.93;8.50;;;-1.50;99.90;;;;;;5026369;28;20684;-51
2024/01/21 01:40:06;;;;;;;14.20;8.53;;;-1.50;99.90;;;;;;5029425;28;20208;-52
2024/01/21 01:42:32;;;;;;;12.93;9.07;;;-1.30;99.90;;;;;;5013753;28;20640;-52
2024/01/21 01:44:58;;;;;;;14.37;8.60;;;-1.20;99.90;;;;;;5034687;28;20211;-52
2024/01/21 01:47:23;;;;;;;13.50;8.50;;;-1.20;99.90;;;;;;5032950;28;20298;-53
2024/01/21 01:49:49;;;;;;;12.97;7.90;;;-1.20;99.90;;;;;;5017121;28;20924;-52
2024/01/21 01:52:16;;;;;;;12.50;8.43;;;-1.20;99.90;;;;;;5034877;28;20206;-52
2024/01/21 01:54:45;;;;;;;13.83;8.23;;;-1.10;99.90;;;;;;5025435;28;20380;-52
2024/01/21 01:57:13;;;;;;;13.60;8.13;;;-1.10;99.90;;;;;;5030573;28;20646;-52
2024/01/21 01:59:39;;;;;;;10.87;8.03;;;-1.00;99.90;;;;;;5021806;28;20203;-51
2024/01/21 02:02:06;;;;;;;12.83;7.30;;;-1.10;99.90;;;;;;5025347;28;20200;-51
2024/01/21 02:04:33;;;;;;;13.93;7.67;;;-1.20;99.90;;;;;;5026816;28;20669;-60
2024/01/21 02:06:58;;;;;;;11.33;7.53;;;-1.30;99.90;;;;;;5030449;28;20551;-52
2024/01/21 02:09:24;;;;;;;12.63;7.13;;;-1.30;99.90;;;;;;5011522;28;20198;-52
2024/01/21 02:11:49;;;;;;;9.77;6.70;;;-1.30;99.90;;;;;;5009560;28;20261;-51
2024/01/21 02:14:16;;;;;;;10.77;7.87;;;-1.30;99.90;;;;;;5029171;28;20187;-52
2024/01/21 02:16:41;;;;;;;11.33;8.07;;;-1.40;99.90;;;;;;5027104;28;20207;-51
2024/01/21 02:19:26;;;;;;;9.97;7.00;;;-1.50;99.90;;;;;;5029559;28;20218;-52
2024/01/21 02:21:52;;;;;;;12.20;7.30;;;-1.40;99.90;;;;;;5032337;28;20236;-52
2024/01/21 02:24:17;;;;;;;11.27;7.33;;;-1.40;99.90;;;;;;5015383;28;20241;-53
2024/01/21 02:26:43;;;;;;;12.90;7.57;;;-1.40;99.90;;;;;;5028307;28;20230;-53
2024/01/21 02:29:09;;;;;;;12.53;8.17;;;-1.40;99.90;;;;;;5027696;28;20202;-53
2024/01/21 02:31:35;;;;;;;10.30;6.43;;;-1.40;99.90;;;;;;5033705;28;20245;-52
2024/01/21 02:34:00;;;;;;;9.03;8.03;;;-1.50;99.90;;;;;;5031865;28;20208;-53
2024/01/21 02:36:26;;;;;;;9.00;7.07;;;-1.50;99.90;;;;;;5028013;28;20206;-52
2024/01/21 02:38:51;;;;;;;9.33;7.00;;;-1.50;99.90;;;;;;5007106;28;20341;-51
2024/01/21 02:41:17;;;;;;;12.23;7.30;;;-1.50;99.90;;;;;;5025890;28;20195;-51
2024/01/21 02:43:42;;;;;;;9.73;5.67;;;-1.60;99.90;;;;;;5035356;28;20867;-51
2024/01/21 02:46:08;;;;;;;11.90;7.57;;;-1.60;99.90;;;;;;5025853;28;20580;-51
2024/01/21 02:48:33;;;;;;;10.57;7.07;;;-1.70;99.90;;;;;;5028788;28;20295;-51
2024/01/21 02:50:59;;;;;;;9.53;7.23;;;-1.70;99.90;;;;;;5027598;28;20207;-51
2024/01/21 02:53:24;;;;;;;8.43;6.47;;;-1.80;99.90;;;;;;5025466;28;20210;-51
2024/01/21 02:55:50;;;;;;;11.33;6.77;;;-1.70;99.90;;;;;;5029597;28;20231;-52
2024/01/21 02:58:15;;;;;;;10.97;7.43;;;-1.70;99.90;;;;;;5033783;28;20210;-53
2024/01/21 03:00:41;;;;;;;10.23;6.87;;;-1.60;99.90;;;;;;5052598;28;20191;-52
2024/01/21 03:03:09;;;;;;;9.77;6.93;;;-1.70;99.90;;;;;;5053658;28;20290;-52
2024/01/21 03:05:35;;;;;;;8.60;6.73;;;-1.70;99.90;;;;;;5051624;28;20195;-53
2024/01/21 03:08:00;;;;;;;9.70;5.83;;;-1.70;99.90;;;;;;5047722;28;20260;-51
2024/01/21 03:10:26;;;;;;;8.63;6.33;;;-1.70;99.90;;;;;;5046542;28;20210;-52
2024/01/21 03:12:51;;;;;;;11.30;6.10;;;-1.70;99.90;;;;;;5056831;28;20213;-52
2024/01/21 03:15:17;;;;;;;9.57;6.53;;;-1.70;99.90;;;;;;5053543;28;20214;-51
2024/01/21 03:17:42;;;;;;;9.27;6.17;;;-1.70;99.90;;;;;;5053659;28;20363;-51
2024/01/21 03:20:09;;;;;;;9.30;7.07;;;-1.70;99.90;;;;;;5047124;28;20219;-51
2024/01/21 03:22:34;;;;;;;8.27;6.80;;;-1.70;99.90;;;;;;5052797;28;20209;-51
2024/01/21 03:25:00;;;;;;;8.10;5.63;;;-1.80;99.90;;;;;;5059110;28;20862;-51
2024/01/21 03:27:26;;;;;;;10.60;6.60;;;-1.80;99.90;;;;;;5052902;28;20304;-52
2024/01/21 03:29:51;;;;;;;9.90;7.13;;;-1.80;99.90;;;;;;5053407;28;20222;-51
2024/01/21 03:32:17;;;;;;;10.60;7.03;;;-1.70;99.90;;;;;;5053922;28;20198;-51
2024/01/21 03:34:43;;;;;;;11.10;7.80;;;-1.60;99.90;;;;;;5055835;28;20716;-51
2024/01/21 03:37:09;;;;;;;7.77;6.27;;;-1.70;99.90;;;;;;5058374;28;20191;-51
2024/01/21 03:39:34;;;;;;;8.10;6.17;;;-1.70;99.90;;;;;;5052478;28;20695;-52
2024/01/21 03:42:00;;;;;;;10.90;6.50;;;-1.70;99.90;;;;;;5052511;28;20206;-53
2024/01/21 03:44:25;;;;;;;9.63;6.33;;;-1.70;99.90;;;;;;5056938;28;20268;-53
2024/01/21 03:46:51;;;;;;;10.23;6.97;;;-1.70;99.90;;;;;;5054570;28;20217;-52
2024/01/21 03:49:16;;;;;;;8.37;6.00;;;-1.80;99.90;;;;;;5052681;28;20261;-52
2024/01/21 03:51:42;;;;;;;7.20;6.50;;;-1.80;99.90;;;;;;5047359;28;20251;-52
2024/01/21 03:54:07;;;;;;;11.63;6.63;;;-1.90;99.90;;;;;;5049473;28;20259;-52
2024/01/21 03:56:33;;;;;;;9.83;6.13;;;-1.90;99.90;;;;;;5056385;28;20222;-51
2024/01/21 03:58:59;;;;;;;8.60;6.67;;;-1.90;99.90;;;;;;5054361;28;20240;-51
2024/01/21 04:01:24;;;;;;;7.63;6.37;;;-1.90;99.90;;;;;;5060989;28;20252;-51
2024/01/21 04:03:51;;;;;;;8.27;5.97;;;-1.90;99.90;;;;;;5056147;28;20206;-52
2024/01/21 04:06:16;;;;;;;9.17;6.37;;;-1.90;99.90;;;;;;5052048;28;20222;-51
2024/01/21 04:08:42;;;;;;;10.53;5.90;;;-1.90;99.90;;;;;;5055058;28;20205;-53
2024/01/21 04:11:07;;;;;;;7.90;5.83;;;-1.90;99.90;;;;;;5049395;28;20202;-53
2024/01/21 04:13:33;;;;;;;9.20;6.77;;;-1.90;99.90;;;;;;5054100;28;20456;-52
2024/01/21 04:15:59;;;;;;;8.03;5.73;;;-1.80;99.90;;;;;;5056495;28;20223;-51
2024/01/21 04:18:25;;;;;;;8.10;6.17;;;-1.80;99.90;;;;;;5048243;28;20209;-52
2024/01/21 04:20:50;;;;;;;8.60;6.03;;;-1.80;99.90;;;;;;5048393;28;20203;-52
2024/01/21 04:23:16;;;;;;;10.57;5.93;;;-1.80;99.90;;;;;;5052874;28;20281;-52
2024/01/21 04:25:41;;;;;;;9.17;5.67;;;-1.80;99.90;;;;;;5054713;28;20927;-52
2024/01/21 04:28:07;;;;;;;7.13;5.70;;;-1.80;99.90;;;;;;5051680;28;20230;-52
2024/01/21 04:30:32;;;;;;;6.37;5.43;;;-1.70;99.90;;;;;;5054269;28;20826;-52
2024/01/21 04:32:58;;;;;;;7.53;5.93;;;-1.70;99.90;;;;;;5055898;28;20190;-52
2024/01/21 04:35:23;;;;;;;10.60;5.33;;;-1.70;99.90;;;;;;5048350;28;20198;-53
2024/01/21 04:37:49;;;;;;;9.73;5.57;;;-1.70;99.90;;;;;;5048489;28;20209;-52
2024/01/21 04:40:14;;;;;;;8.23;5.67;;;-1.60;99.90;;;;;;5051166;28;20582;-52
2024/01/21 04:42:40;;;;;;;11.83;6.10;;;-1.60;99.90;;;;;;5055760;28;20205;-51
2024/01/21 04:45:06;;;;;;;6.30;5.10;;;-1.70;99.90;;;;;;5061583;28;20714;-51
2024/01/21 04:47:32;;;;;;;8.67;6.10;;;-1.60;99.90;;;;;;5048021;28;20222;-52
2024/01/21 04:49:57;;;;;;;6.97;5.87;;;-1.60;99.90;;;;;;5049893;28;20283;-52
2024/01/21 04:52:23;;;;;;;6.63;5.07;;;-1.60;99.90;;;;;;5053045;28;20278;-52
2024/01/21 04:54:48;;;;;;;8.00;6.13;;;-1.60;99.90;;;;;;5052104;28;20726;-52
2024/01/21 04:57:14;;;;;;;9.70;5.77;;;-1.50;99.90;;;;;;5046495;28;20206;-52
2024/01/21 04:59:39;;;;;;;7.27;5.50;;;-1.50;99.90;;;;;;5051953;28;20187;-53
2024/01/21 05:02:05;;;;;;;7.50;5.67;;;-1.50;99.90;;;;;;5053533;28;20573;-68
2024/01/21 05:04:30;;;;;;;6.67;4.67;;;-1.60;99.90;;;;;;5052997;28;20675;-55
2024/01/21 05:06:56;;;;;;;6.37;5.77;;;-1.60;99.90;;;;;;5051825;28;20216;-52
2024/01/21 05:09:22;;;;;;;9.50;6.00;;;-1.50;99.90;;;;;;5041578;28;20206;-52
2024/01/21 05:11:47;;;;;;;6.77;5.63;;;-1.40;99.90;;;;;;5052515;28;21054;-52
2024/01/21 05:14:13;;;;;;;7.77;5.83;;;-1.40;99.90;;;;;;5047965;28;20359;-51
2024/01/21 05:16:40;;;;;;;9.77;5.67;;;-1.40;99.90;;;;;;5052807;28;20559;-52
2024/01/21 05:19:05;;;;;;;6.00;4.80;;;-1.40;99.90;;;;;;5055618;28;20235;-52
2024/01/21 05:21:31;;;;;;;4.40;4.00;;;-1.60;99.30;;;;;;5053692;28;20840;-51
2024/01/21 05:23:56;;;;;;;7.90;5.23;;;-1.60;99.90;;;;;;5048821;28;20282;-51
2024/01/21 05:26:22;;;;;;;7.63;5.73;;;-1.60;99.90;;;;;;5059051;28;20217;-51
2024/01/21 05:28:47;;;;;;;7.17;5.53;;;-1.60;99.90;;;;;;5048456;28;20520;-51
2024/01/21 05:31:13;;;;;;;6.07;5.30;;;-1.60;99.90;;;;;;5050226;28;20210;-51
2024/01/21 05:33:40;;;;;;;7.20;5.63;;;-1.60;99.80;;;;;;5052843;28;20615;-51
2024/01/21 05:36:06;;;;;;;8.57;5.80;;;-1.60;99.50;;;;;;5049616;28;20579;-51
2024/01/21 05:38:32;;;;;;;9.43;5.60;;;-1.60;99.40;;;;;;5058321;28;20244;-51
2024/01/21 05:40:57;;;;;;;6.57;4.70;;;-1.70;99.20;;;;;;5043882;28;20212;-51
2024/01/21 05:43:23;;;;;;;8.33;4.87;;;-1.60;99.60;;;;;;5048724;28;20194;-51
2024/01/21 05:45:48;;;;;;;8.37;5.67;;;-1.60;99.60;;;;;;5046927;28;20206;-51
2024/01/21 05:48:14;;;;;;;9.07;5.40;;;-1.50;99.30;;;;;;5054949;28;20229;-51
2024/01/21 05:50:40;;;;;;;7.23;5.20;;;-1.50;99.10;;;;;;5049383;28;20194;-50
2024/01/21 05:53:06;;;;;;;8.27;5.37;;;-1.50;99.20;;;;;;5051251;28;20711;-50
2024/01/21 05:55:32;;;;;;;6.70;5.20;;;-1.40;98.80;;;;;;5051768;28;20218;-51
2024/01/21 05:57:58;;;;;;;8.70;6.03;;;-1.40;98.90;;;;;;5040714;28;20571;-51
2024/01/21 06:00:24;;;;;;;6.27;5.17;;;-1.30;99.00;;;;;;5051377;28;20200;-51
2024/01/21 06:02:51;;;;;;;6.87;5.43;;;-1.40;99.00;;;;;;5058549;28;20206;-51
2024/01/21 06:05:16;;;;;;;9.30;5.40;;;-1.40;99.40;;;;;;5052112;28;20202;-51
2024/01/21 06:07:42;;;;;;;8.47;5.67;;;-1.40;99.30;;;;;;5054626;28;20723;-51
2024/01/21 06:10:08;;;;;;;9.13;6.33;;;-1.40;99.50;;;;;;5051028;28;20618;-51
2024/01/21 06:12:34;;;;;;;6.83;6.00;;;-1.30;99.90;;;;;;5052857;28;20207;-52
2024/01/21 06:14:59;;;;;;;8.57;6.53;;;-1.20;99.30;;;;;;5052737;28;20198;-52
2024/01/21 06:17:25;;;;;;;7.07;6.07;;;-1.20;99.70;;;;;;5048816;28;20248;-51
2024/01/21 06:19:50;;;;;;;7.30;5.87;;;-1.30;99.10;;;;;;5045632;28;20205;-51
2024/01/21 06:22:16;;;;;;;8.07;5.60;;;-1.20;99.10;;;;;;5047080;28;20256;-51
2024/01/21 06:24:41;;;;;;;7.87;6.07;;;-1.00;98.40;;;;;;5045244;28;20317;-51
2024/01/21 06:27:07;;;;;;;9.10;6.23;;;-1.00;98.70;;;;;;5049623;28;20660;-52
2024/01/21 06:29:32;;;;;;;7.30;6.27;;;-1.00;98.60;;;;;;5054038;28;20206;-52
2024/01/21 06:31:58;;;;;;;9.20;5.90;;;-1.00;98.80;;;;;;5058714;28;20210;-52
2024/01/21 06:34:23;;;;;;;8.93;6.47;;;-1.00;99.40;;;;;;5056210;28;20218;-52
2024/01/21 06:36:48;;;;;;;9.87;6.40;;;-0.90;99.10;;;;;;5055202;28;20268;-52
2024/01/21 06:39:14;;;;;;;7.77;5.10;;;-0.90;98.80;;;;;;5056576;28;20213;-52
2024/01/21 06:41:39;;;;;;;6.93;5.40;;;-1.00;98.50;;;;;;5056385;28;20298;-52
2024/01/21 06:44:05;;;;;;;11.97;6.17;;;-1.00;98.90;;;;;;5054252;28;20735;-52
2024/01/21 06:46:30;;;;;;;8.30;6.73;;;-1.00;98.80;;;;;;5059804;28;20302;-52
2024/01/21 06:48:56;;;;;;;7.23;5.50;;;-1.10;99.50;;;;;;5057760;28;20206;-51
2024/01/21 06:51:31;;;;;;;6.90;5.73;;;-1.00;99.40;;;;;;5052215;28;20575;-54
2024/01/21 06:54:02;;;;;;;9.17;6.20;;;-1.00;99.90;;;;;;5052748;28;20299;-52
2024/01/21 06:56:27;;;;;;;9.73;5.77;;;-1.00;99.40;;;;;;5052661;28;20202;-53
2024/01/21 06:58:53;;;;;;;7.60;6.07;;;-1.00;99.40;;;;;;5054143;28;20199;-52
2024/01/21 07:01:19;;;;;;;8.10;5.37;;;-1.00;98.80;;;;;;5053944;28;20697;-52
2024/01/21 07:03:45;;;;;;;9.10;6.07;;;-1.00;98.90;;;;;;5052221;28;20352;-51
2024/01/21 07:06:11;;;;;;;7.77;6.60;;;-0.90;99.00;;;;;;5047565;28;20203;-51
2024/01/21 07:08:37;;;;;;;9.83;6.40;;;-0.90;99.10;;;;;;5053069;28;20539;-51
2024/01/21 07:11:07;;;;;;;7.67;6.27;;;-1.00;99.60;;;;;;5047507;28;20674;-56
2024/01/21 07:13:32;;;;;;;8.67;5.97;;;-0.90;99.80;;;;;;5049010;28;20250;-51
2024/01/21 07:15:58;;;;;;;7.93;6.23;;;-0.80;99.30;;;;;;5047842;28;21043;-51
2024/01/21 07:18:23;;;;;;;7.83;5.60;;;-1.00;99.50;;;;;;5044708;28;20196;-51
2024/01/21 07:20:49;;;;;;;8.90;6.13;;;-0.90;99.30;;;;;;5051058;28;20328;-51
2024/01/21 07:23:14;;;;;;;6.13;4.77;;;-0.80;98.70;;;;;;5051238;28;20290;-51
2024/01/21 07:25:40;;;;;;;8.00;6.07;;;-0.70;98.60;;;;;;5053119;28;20600;-51
2024/01/21 07:28:06;;;;;;;7.67;4.63;;;-0.70;98.60;;;;;;5051324;28;20297;-52
2024/01/21 07:30:32;;;;;;;8.40;5.63;;;-0.70;98.60;;;;;;5062881;28;20212;-52
2024/01/21 07:32:57;;;;;;;8.80;5.37;;;-0.70;97.80;;;;;;5043517;28;20843;-52
2024/01/21 07:35:23;;;;;;;7.60;5.40;;;-0.80;98.60;;;;;;5056984;28;20236;-56
2024/01/21 07:37:48;;;;;;;7.47;5.83;;;-0.80;99.10;;;;;;5044971;28;20793;-51
2024/01/21 07:40:14;;;;;;;9.07;5.77;;;-0.80;98.90;;;;;;5059616;28;20215;-51
2024/01/21 07:42:39;;;;;;;8.33;5.87;;;-0.70;98.90;;;;;;5060640;28;20973;-51
2024/01/21 07:45:05;;;;;;;6.73;5.47;;;-0.70;99.00;;;;;;5057314;28;20202;-63
2024/01/21 07:47:31;;;;;;;7.67;5.07;;;-0.60;98.90;;;;;;5058660;28;20221;-65
2024/01/21 07:49:57;;;;;;;5.50;4.57;;;-0.70;98.90;;;;;;5036576;28;20210;-51
2024/01/21 07:52:22;;;;;;;7.73;4.07;;;-0.70;98.70;;;;;;5054181;28;20203;-52
2024/01/21 07:54:48;;;;;;;5.80;5.07;;;-0.80;98.70;;;;;;5050813;28;20775;-52
2024/01/21 07:57:13;;;;;;;7.40;5.63;;;-0.80;98.90;;;;;;5056037;28;20256;-54
2024/01/21 07:59:39;;;;;;;7.60;5.77;;;-0.80;99.20;;;;;;5039786;28;20245;-52
2024/01/21 08:02:05;;;;;;;4.93;4.50;;;-0.60;99.00;;;;;;5045885;28;20198;-51
2024/01/21 08:04:30;;;;;;;8.33;4.90;;;-0.60;98.30;;;;;;5041041;28;20716;-53
2024/01/21 08:06:56;;;;;;;5.70;4.67;;;-0.60;98.10;;;;;;5037116;28;20670;-52
2024/01/21 08:09:21;;;;;;;6.67;4.97;;;-0.50;98.10;;;;;;5044439;28;20200;-54
2024/01/21 08:11:47;;;;;;;6.60;4.27;;;-0.50;97.70;;;;;;5048322;28;20205;-62
2024/01/21 08:14:13;;;;;;;6.20;4.97;;;-0.40;97.20;;;;;;5045717;28;20299;-62
2024/01/21 08:16:39;;;;;;;5.53;4.40;;;-0.40;96.90;;;;;;5045270;28;20223;-54
2024/01/21 08:19:04;;;;;;;5.10;4.23;;;-0.40;97.50;;;;;;5032753;28;20191;-51
2024/01/21 08:21:30;;;;;;;8.53;4.80;;;-0.20;97.10;;;;;;5046549;28;20313;-55
2024/01/21 08:23:55;;;;;;;6.57;4.50;;;-0.20;96.20;;;;;;5049701;28;20199;-55
2024/01/21 08:26:21;;;;;;;5.83;4.60;;;-0.10;96.20;;;;;;5043399;28;20244;-55
2024/01/21 08:28:47;;;;;;;5.03;4.53;;;-0.10;95.50;;;;;;5035061;28;20638;-58
2024/01/21 08:31:13;;;;;;;7.50;3.73;;;-0.20;94.90;;;;;;5048000;28;20212;-52
2024/01/21 08:33:39;;;;;;;6.77;4.80;;;-0.10;94.90;;;;;;5058105;28;20213;-52
2024/01/21 08:36:05;;;;;;;6.37;4.27;;;-0.10;94.40;;;;;;5055302;28;20214;-52
2024/01/21 08:38:30;;;;;;;5.60;3.70;;;-0.10;93.40;;;;;;5058599;28;20248;-52
2024/01/21 08:40:56;;;;;;;4.27;3.20;;;-0.10;93.50;;;;;;5061379;28;20268;-51
2024/01/21 08:43:21;;;;;;;6.20;3.63;;;-0.10;93.40;;;;;;5055124;28;20221;-51
2024/01/21 08:45:46;;;;;;;5.87;3.43;;;0.00;93.40;;;;;;5051468;28;20207;-52
2024/01/21 08:48:12;;;;;;;1.53;1.43;;;0.10;93.10;;;;;;5053062;28;20280;-52
2024/01/21 08:50:39;;;;;;;3.30;2.97;;;0.10;91.90;;;;;;5047504;28;20199;-52
2024/01/21 08:53:04;;;;;;;4.23;3.13;;;0.10;91.90;;;;;;5050658;28;20191;-58
2024/01/21 08:55:29;;;;;;;6.30;3.13;;;0.10;91.60;;;;;;5044739;28;20664;-52
2024/01/21 08:57:55;;;;;;;4.17;3.17;;;0.10;91.10;;;;;;5056343;28;20609;-53
2024/01/21 09:00:21;;;;;;;4.40;2.63;;;0.20;91.50;;;;;;5054346;28;20248;-53
2024/01/21 09:02:46;;;;;;;3.30;2.73;;;0.30;91.20;;;;;;5048057;28;20207;-53
2024/01/21 09:05:13;;;;;;;2.90;2.40;;;0.40;90.60;;;;;;5053791;28;20189;-53
2024/01/21 09:07:39;;;;;;;4.10;2.60;;;0.40;89.30;;;;;;5058359;28;20218;-53
2024/01/21 09:10:05;;;;;;;4.20;2.87;;;0.50;87.80;;;;;;5052484;28;20206;-53
2024/01/21 09:12:31;;;;;;;3.03;2.53;;;0.50;86.30;;;;;;5054790;28;20711;-53
2024/01/21 09:14:57;;;;;;;3.97;2.43;;;0.60;87.80;;;;;;5047131;28;20204;-60
2024/01/21 09:17:22;;;;;;;5.20;3.13;;;0.60;85.10;;;;;;5051975;28;20334;-62
2024/01/21 09:19:48;;;;;;;3.27;2.97;;;0.70;85.40;;;;;;5051340;28;20203;-66
2024/01/21 09:22:13;;;;;;;3.77;2.90;;;0.70;84.80;;;;;;5049490;28;20195;-57
2024/01/21 09:24:39;;;;;;;5.13;2.37;;;0.80;84.10;;;;;;5046944;28;20207;-58
2024/01/21 09:27:04;;;;;;;4.17;3.37;;;0.90;82.40;;;;;;5049043;28;20207;-63
2024/01/21 09:29:30;;;;;;;2.23;2.03;;;0.80;82.10;;;;;;5043717;28;20196;-53
2024/01/21 09:31:57;;;;;;;2.63;2.43;;;0.90;81.50;;;;;;5049235;28;20240;-53
2024/01/21 09:34:23;;;;;;;2.37;2.17;;;0.90;80.30;;;;;;5047731;28;20674;-58
2024/01/21 09:36:51;;;;;;;1.87;1.73;;;0.90;80.10;;;;;;5047915;28;20207;-55
2024/01/21 09:39:17;;;;;;;2.10;1.60;;;0.80;81.10;;;;;;5049996;28;20227;-54
2024/01/21 09:41:50;;;;;;;4.23;2.80;;;0.80;80.40;;;;;;5045294;28;20249;-53
2024/01/21 09:44:24;;;;;;;2.70;2.23;;;0.90;80.30;;;;;;5044107;28;20199;-53
2024/01/21 09:46:51;;;;;;;3.37;2.80;;;1.00;80.30;;;;;;5046232;28;20962;-52
2024/01/21 09:49:18;;;;;;;3.93;2.27;;;1.00;77.00;;;;;;5049782;28;20815;-62
2024/01/21 09:51:46;;;;;;;2.10;1.87;;;1.00;77.40;;;;;;5043880;28;20711;-59
2024/01/21 09:54:11;;;;;;;11.47;2.60;;;1.00;77.00;;;;;;5053262;28;20228;-58
2024/01/21 09:56:37;;;;;;;2.40;2.17;;;1.00;78.00;;;;;;5058096;28;20258;-59
2024/01/21 09:59:04;;;;;;;4.07;1.93;;;1.10;75.90;;;;;;5060181;28;20573;-60
2024/01/21 10:01:32;;;;;;;2.53;2.10;;;1.10;75.10;;;;;;5052119;28;20282;-54
2024/01/21 10:03:57;;;;;;;2.77;2.00;;;1.10;75.30;;;;;;5054439;28;20230;-66
2024/01/21 10:06:23;;;;;;;3.50;2.50;;;1.20;74.60;;;;;;5054377;28;20674;-56
2024/01/21 10:08:49;;;;;;;5.53;2.30;;;1.20;72.60;;;;;;5049799;28;20738;-54
2024/01/21 10:11:15;;;;;;;2.03;1.73;;;1.20;73.10;;;;;;5052631;28;20203;-52
2024/01/21 10:13:42;;;;;;;4.43;1.90;;;1.20;72.80;;;;;;5049632;28;20200;-54
2024/01/21 10:16:09;;;;;;;2.37;1.77;;;1.20;71.50;;;;;;5049201;28;20188;-53
2024/01/21 10:18:36;;;;;;;2.10;1.83;;;1.30;70.60;;;;;;5052612;28;20192;-53
2024/01/21 10:21:05;;;;;;;3.13;2.57;;;1.30;71.50;;;;;;5050400;28;20845;-53
2024/01/21 10:23:32;;;;;;;4.00;2.20;;;1.40;69.40;;;;;;5050583;28;20192;-52
2024/01/21 10:25:58;;;;;;;3.20;1.77;;;1.50;69.50;;;;;;5054311;28;20203;-52
2024/01/21 10:28:23;;;;;;;3.87;1.70;;;1.50;68.40;;;;;;5050498;28;21008;-52
2024/01/21 10:30:49;;;;;;;2.70;1.87;;;1.60;68.00;;;;;;5050412;28;20244;-53
2024/01/21 10:33:15;;;;;;;2.30;1.87;;;1.60;67.70;;;;;;5052082;28;20231;-53
2024/01/21 10:35:41;;;;;;;2.30;2.10;;;1.50;67.70;;;;;;5056914;28;20234;-57
2024/01/21 10:38:11;;;;;;;2.20;2.00;;;1.60;67.80;;;;;;5052799;28;20205;-52
2024/01/21 10:40:44;;;;;;;2.37;2.17;;;1.60;68.40;;;;;;5050209;28;20510;-64
2024/01/21 10:43:18;;;;;;;3.67;2.13;;;1.70;69.20;;;;;;5047450;28;20198;-54
2024/01/21 10:45:45;;;;;;;2.13;1.93;;;1.70;66.60;;;;;;5052585;28;20369;-61
2024/01/21 10:48:15;;;;;;;2.50;2.30;;;1.80;66.90;;;;;;5046551;28;20229;-55
2024/01/21 10:50:43;;;;;;;2.90;2.63;;;1.70;67.00;;;;;;5050516;28;20333;-53
2024/01/21 10:53:12;;;;;;;5.47;2.43;;;1.70;67.20;;;;;;5063979;28;20274;-55
2024/01/21 10:55:41;;;;;;;4.43;2.47;;;1.70;67.40;;;;;;5053339;28;20724;-51
2024/01/21 10:58:08;;;;;;;4.07;2.60;;;1.80;66.60;;;;;;5052289;28;20245;-51
2024/01/21 11:00:38;;;;;;;4.20;2.20;;;1.80;67.00;;;;;;5054763;28;20573;-52
2024/01/21 11:03:26;;;;;;;3.07;1.80;;;1.90;68.80;;;;;;5049632;28;20196;-54
2024/01/21 11:06:03;;;;;;;2.90;2.57;;;2.00;67.80;;;;;;5041200;28;20204;-52
2024/01/21 11:08:29;;;;;;;5.10;2.30;;;2.00;66.70;;;;;;5050003;28;20302;-53
2024/01/21 11:11:02;;;;;;;2.93;1.90;;;2.10;67.90;;;;;;5048764;28;20258;-51
2024/01/21 11:13:45;;;;;;;1.93;1.70;;;2.10;66.50;;;;;;5052155;28;20279;-53
2024/01/21 11:16:25;;;;;;;2.73;2.30;;;2.10;67.10;;;;;;5049413;28;20254;-52
2024/01/21 11:19:12;;;;;;;1.87;1.77;;;2.10;65.20;;;;;;5050766;28;20202;-65
2024/01/21 11:21:42;;;;;;;2.43;2.10;;;2.20;65.40;;;;;;5051762;28;20285;-60
2024/01/21 11:24:12;;;;;;;5.57;1.87;;;2.30;65.60;;;;;;5052561;28;20227;-53
2024/01/21 11:26:43;;;;;;;2.97;2.27;;;2.40;64.60;;;;;;5051989;28;20217;-52
2024/01/21 11:29:29;;;;;;;4.50;2.17;;;2.50;64.40;;;;;;5057462;28;20212;-52
2024/01/21 11:32:00;;;;;;;2.60;2.37;;;2.70;63.70;;;;;;5041661;28;20196;-53
2024/01/21 11:34:36;;;;;;;3.87;1.87;;;3.00;62.60;;;;;;5048770;28;20287;-53
2024/01/21 11:37:02;;;;;;;2.67;1.70;;;3.20;59.80;;;;;;5051612;28;20387;-62
2024/01/21 11:39:27;;;;;;;2.13;1.87;;;3.20;58.90;;;;;;5053680;28;20553;-63
2024/01/21 11:41:53;;;;;;;3.13;2.40;;;3.10;59.80;;;;;;5051749;28;20220;-60
2024/01/21 11:44:20;;;;;;;2.30;1.63;;;3.10;59.20;;;;;;5058775;28;21069;-63
2024/01/21 11:46:46;;;;;;;2.73;1.63;;;3.10;58.50;;;;;;5052408;28;20218;-64
2024/01/21 11:49:12;;;;;;;3.93;2.00;;;3.20;58.00;;;;;;5045695;28;20197;-66
2024/01/21 11:51:38;;;;;;;3.20;2.20;;;3.20;58.10;;;;;;5056763;28;20635;-65
2024/01/21 11:54:05;;;;;;;9.00;2.57;;;3.30;57.80;;;;;;5056718;28;20291;-65
2024/01/21 11:56:31;;;;;;;1.80;1.63;;;3.20;56.90;;;;;;5055042;28;20243;-65
2024/01/21 11:58:57;;;;;;;2.47;2.27;;;3.20;56.50;;;;;;5048710;28;20626;-64
2024/01/21 12:01:24;;;;;;;2.37;2.17;;;3.30;56.50;;;;;;5036808;28;20741;-53
2024/01/21 12:03:50;;;;;;;4.67;1.83;;;3.50;56.10;;;;;;5037459;28;20197;-52
2024/01/21 12:06:16;;;;;;;3.37;1.93;;;3.60;55.90;;;;;;5050823;28;20258;-53
2024/01/21 12:08:44;;;;;;;4.50;2.40;;;3.90;55.60;;;;;;5048496;28;20209;-54
2024/01/21 12:11:11;;;;;;;2.00;1.90;;;4.20;55.20;;;;;;5047381;28;20197;-52
2024/01/21 12:13:40;;;;;;;2.43;2.10;;;4.60;53.50;;;;;;5046862;28;20208;-52
2024/01/21 12:16:09;;;;;;;2.30;1.73;;;4.60;51.70;;;;;;5049992;28;20726;-52
2024/01/21 12:18:42;;;;;;;7.00;2.13;;;4.40;51.40;;;;;;5048853;28;20198;-51
2024/01/21 12:21:12;;;;;;;4.70;2.03;;;4.10;52.40;;;;;;5045178;28;20213;-53
2024/01/21 12:23:46;;;;;;;2.00;1.80;;;3.90;53.10;;;;;;5046199;28;20202;-52
2024/01/21 12:26:20;;;;;;;2.67;2.03;;;3.80;52.70;;;;;;5042651;28;20690;-51
2024/01/21 12:28:59;;;;;;;2.23;2.03;;;3.70;53.60;;;;;;5045640;28;20216;-51
2024/01/21 12:31:25;;;;;;;4.10;1.97;;;3.60;53.00;;;;;;5047976;28;20677;-51
2024/01/21 12:33:51;;;;;;;3.07;2.13;;;3.60;53.60;;;;;;5045989;28;20575;-51
2024/01/21 12:36:17;;;;;;;1.83;1.53;;;3.50;52.40;;;;;;5046216;28;21095;-54
2024/01/21 12:38:42;;;;;;;0.83;0.83;;;3.50;52.40;;;;;;5044888;28;20264;-60
2024/01/21 12:41:08;;;;;;;2.20;1.87;;;3.30;52.60;;;;;;5052388;28;20899;-63
2024/01/21 12:43:34;;;;;;;2.20;2.00;;;3.30;52.60;;;;;;5048209;28;20227;-52